createdAt,value
2017-09-06T00:00:48.420Z,6.00
2017-09-06T00:03:14.756Z,5.47
2017-09-06T00:05:41.489Z,4.70
2017-09-06T00:08:07.842Z,5.27
2017-09-06T00:10:34.198Z,5.60
2017-09-06T00:13:00.661Z,6.73
2017-09-06T00:15:27.878Z,5.73
2017-09-06T00:17:54.236Z,5.40
2017-09-06T00:20:20.584Z,5.60
2017-09-06T00:22:46.975Z,5.77
2017-09-06T00:25:13.300Z,4.70
2017-09-06T00:27:40.104Z,5.97
2017-09-06T00:30:06.467Z,6.20
2017-09-06T00:32:32.820Z,5.70
2017-09-06T00:34:59.228Z,6.70
2017-09-06T00:37:25.593Z,5.80
2017-09-06T00:39:51.980Z,6.47
2017-09-06T00:42:18.366Z,5.70
2017-09-06T00:44:44.771Z,5.80
2017-09-06T00:47:11.215Z,6.50
2017-09-06T00:49:37.608Z,5.27
2017-09-06T00:52:04.000Z,6.20
2017-09-06T00:54:30.656Z,6.17
2017-09-06T00:56:57.045Z,5.70
2017-09-06T00:59:23.513Z,6.20
2017-09-06T01:01:49.902Z,6.20
2017-09-06T01:04:16.270Z,5.70
2017-09-06T01:06:42.727Z,5.30
2017-09-06T01:09:09.125Z,6.27
2017-09-06T01:11:35.512Z,5.43
2017-09-06T01:14:01.934Z,5.50
2017-09-06T01:16:28.353Z,6.33
2017-09-06T01:18:54.741Z,5.60
2017-09-06T01:21:21.472Z,6.23
2017-09-06T01:23:47.899Z,5.50
2017-09-06T01:26:14.266Z,6.83
2017-09-06T01:28:40.652Z,6.53
2017-09-06T01:31:07.042Z,5.67
2017-09-06T01:33:33.419Z,6.50
2017-09-06T01:35:59.795Z,5.70
2017-09-06T01:38:26.190Z,4.80
2017-09-06T01:40:52.605Z,5.27
2017-09-06T01:43:18.965Z,5.20
2017-09-06T01:45:45.321Z,5.10
2017-09-06T01:48:12.091Z,6.20
2017-09-06T01:50:38.466Z,5.53
2017-09-06T01:53:04.811Z,5.30
2017-09-06T01:55:31.207Z,5.30
2017-09-06T01:57:57.595Z,5.70
2017-09-06T02:00:24.044Z,5.03
2017-09-06T02:02:50.447Z,5.33
2017-09-06T02:05:17.213Z,5.50
2017-09-06T02:07:43.557Z,5.20
2017-09-06T02:10:09.933Z,5.57
2017-09-06T02:12:36.345Z,6.03
2017-09-06T02:15:09.644Z,6.13
2017-09-06T02:17:36.015Z,4.90
2017-09-06T02:20:02.383Z,5.40
2017-09-06T02:22:28.765Z,4.47
2017-09-06T02:24:55.153Z,6.07
2017-09-06T02:27:21.871Z,5.00
2017-09-06T02:29:48.210Z,5.50
2017-09-06T02:32:14.543Z,5.43
2017-09-06T02:34:40.915Z,4.90
2017-09-06T02:37:07.313Z,4.80
2017-09-06T02:39:33.677Z,5.20
2017-09-06T02:42:00.041Z,5.00
2017-09-06T02:44:26.464Z,5.53
2017-09-06T02:46:52.950Z,5.40
2017-09-06T02:49:19.329Z,5.63
2017-09-06T02:51:45.718Z,5.17
2017-09-06T02:54:12.390Z,5.13
2017-09-06T02:56:38.752Z,4.53
2017-09-06T02:59:05.099Z,4.87
2017-09-06T03:01:31.466Z,4.57
2017-09-06T03:03:57.863Z,3.80
2017-09-06T03:06:24.224Z,4.20
2017-09-06T03:08:50.553Z,3.53
2017-09-06T03:11:17.011Z,4.00
2017-09-06T03:13:43.379Z,4.07
2017-09-06T03:16:09.762Z,3.30
2017-09-06T03:18:36.114Z,3.97
2017-09-06T03:21:02.529Z,3.90
2017-09-06T03:23:28.908Z,3.80
2017-09-06T03:25:55.243Z,3.90
2017-09-06T03:28:21.663Z,3.10
2017-09-06T03:30:48.024Z,3.70
2017-09-06T03:33:14.678Z,3.60
2017-09-06T03:35:41.036Z,3.70
2017-09-06T03:38:07.381Z,3.70
2017-09-06T03:40:33.762Z,4.50
2017-09-06T03:43:00.135Z,2.77
2017-09-06T03:45:26.506Z,3.17
2017-09-06T03:47:52.879Z,3.50
2017-09-06T03:50:19.271Z,3.40
2017-09-06T03:52:45.627Z,3.67
2017-09-06T03:55:12.258Z,3.60
2017-09-06T03:57:38.616Z,3.40
2017-09-06T04:00:04.984Z,3.33
2017-09-06T04:02:31.364Z,3.80
2017-09-06T04:04:57.731Z,4.13
2017-09-06T04:07:24.094Z,3.47
2017-09-06T04:09:50.539Z,4.83
2017-09-06T04:12:16.944Z,4.70
2017-09-06T04:14:43.314Z,3.90
2017-09-06T04:17:09.665Z,4.10
2017-09-06T04:19:36.012Z,3.93
2017-09-06T04:22:02.399Z,3.93
2017-09-06T04:24:28.771Z,3.43
2017-09-06T04:26:55.161Z,3.60
2017-09-06T04:29:22.682Z,3.77
2017-09-06T04:31:49.006Z,4.40
2017-09-06T04:34:15.384Z,5.20
2017-09-06T04:36:41.748Z,4.80
2017-09-06T04:39:08.121Z,4.73
2017-09-06T04:41:34.510Z,4.60
2017-09-06T04:44:00.879Z,4.47
2017-09-06T04:46:27.262Z,4.30
2017-09-06T04:48:53.662Z,3.93
2017-09-06T04:51:20.012Z,4.10
2017-09-06T04:53:46.398Z,3.50
2017-09-06T04:56:13.144Z,4.03
2017-09-06T04:58:39.523Z,4.03
2017-09-06T05:01:05.844Z,3.63
2017-09-06T05:03:32.216Z,3.73
2017-09-06T05:05:58.575Z,3.00
2017-09-06T05:08:24.942Z,2.83
2017-09-06T05:10:51.283Z,3.80
2017-09-06T05:13:17.957Z,2.53
2017-09-06T05:15:44.327Z,2.80
2017-09-06T05:18:10.685Z,2.50
2017-09-06T05:20:37.056Z,2.63
2017-09-06T05:23:03.445Z,2.30
2017-09-06T05:25:29.809Z,2.13
2017-09-06T05:27:56.277Z,2.87
2017-09-06T05:30:22.738Z,2.00
2017-09-06T05:32:49.085Z,2.90
2017-09-06T05:35:15.839Z,2.03
2017-09-06T05:37:42.173Z,3.20
2017-09-06T05:40:08.534Z,2.60
2017-09-06T05:42:34.912Z,2.10
2017-09-06T05:45:01.277Z,2.23
2017-09-06T05:47:27.739Z,2.30
2017-09-06T05:49:54.084Z,2.50
2017-09-06T05:52:20.430Z,3.20
2017-09-06T05:54:46.804Z,2.17
2017-09-06T05:57:13.616Z,2.60
2017-09-06T05:59:39.956Z,2.60
2017-09-06T06:02:06.324Z,2.97
2017-09-06T06:04:32.778Z,2.83
2017-09-06T06:06:59.167Z,2.83
2017-09-06T06:09:25.531Z,2.80
2017-09-06T06:11:51.918Z,2.93
2017-09-06T06:14:18.297Z,2.40
2017-09-06T06:16:44.649Z,2.40
2017-09-06T06:19:11.411Z,2.63
2017-09-06T06:21:37.772Z,3.10
2017-09-06T06:24:04.120Z,2.50
2017-09-06T06:26:30.469Z,3.03
2017-09-06T06:28:56.844Z,2.70
2017-09-06T06:31:23.188Z,3.10
2017-09-06T06:33:49.523Z,2.80
2017-09-06T06:36:15.864Z,2.63
2017-09-06T06:38:42.238Z,2.83
2017-09-06T06:41:08.945Z,2.60
2017-09-06T06:43:35.292Z,2.80
2017-09-06T06:46:01.650Z,2.73
2017-09-06T06:48:28.105Z,3.40
2017-09-06T06:50:54.513Z,2.70
2017-09-06T06:53:20.881Z,3.30
2017-09-06T06:55:47.254Z,3.00
2017-09-06T06:58:13.637Z,3.20
2017-09-06T07:00:40.176Z,2.60
2017-09-06T07:03:06.564Z,3.40
2017-09-06T07:05:32.948Z,2.50
2017-09-06T07:07:59.629Z,2.40
2017-09-06T07:10:25.987Z,2.83
2017-09-06T07:12:52.511Z,2.67
2017-09-06T07:15:18.859Z,2.87
2017-09-06T07:17:45.182Z,3.40
2017-09-06T07:20:11.571Z,3.30
2017-09-06T07:22:37.952Z,2.83
2017-09-06T07:25:04.719Z,3.10
2017-09-06T07:27:31.110Z,2.70
2017-09-06T07:29:57.457Z,2.53
2017-09-06T07:32:23.885Z,2.70
2017-09-06T07:34:50.245Z,3.20
2017-09-06T07:37:16.722Z,2.70
2017-09-06T07:39:43.094Z,2.40
2017-09-06T07:42:09.492Z,4.80
2017-09-06T07:44:35.926Z,3.13
2017-09-06T07:47:02.393Z,2.90
2017-09-06T07:49:28.789Z,2.87
2017-09-06T07:51:55.461Z,2.20
2017-09-06T07:54:21.817Z,2.93
2017-09-06T07:56:48.168Z,2.90
2017-09-06T07:59:14.534Z,2.50
2017-09-06T08:01:40.889Z,2.67
2017-09-06T08:04:07.267Z,2.53
2017-09-06T08:06:33.676Z,3.07
2017-09-06T08:09:00.391Z,2.13
2017-09-06T08:11:26.745Z,2.83
2017-09-06T08:13:53.099Z,2.27
2017-09-06T08:16:19.472Z,2.53
2017-09-06T08:18:45.883Z,2.50
2017-09-06T08:21:12.266Z,2.40
2017-09-06T08:23:38.600Z,2.50
2017-09-06T08:26:05.021Z,2.43
2017-09-06T08:28:31.406Z,2.50
2017-09-06T08:30:58.052Z,2.30
2017-09-06T08:33:24.420Z,2.00
2017-09-06T08:35:50.772Z,2.00
2017-09-06T08:38:17.208Z,2.33
2017-09-06T08:40:43.569Z,2.40
2017-09-06T08:43:09.980Z,2.67
2017-09-06T08:45:36.415Z,2.47
2017-09-06T08:48:02.821Z,2.90
2017-09-06T08:50:29.304Z,2.43
2017-09-06T08:52:55.942Z,2.60
2017-09-06T08:55:22.304Z,2.27
2017-09-06T08:57:48.682Z,2.70
2017-09-06T09:00:15.059Z,2.40
2017-09-06T09:02:41.401Z,2.07
2017-09-06T09:05:07.777Z,2.60
2017-09-06T09:07:34.144Z,2.90
2017-09-06T09:10:00.871Z,2.63
2017-09-06T09:12:27.238Z,2.50
2017-09-06T09:14:53.659Z,2.50
2017-09-06T09:17:20.034Z,2.50
2017-09-06T09:19:46.378Z,2.10
2017-09-06T09:22:12.804Z,2.10
2017-09-06T09:24:39.174Z,2.40
2017-09-06T09:27:05.579Z,1.90
2017-09-06T09:29:31.960Z,1.57
2017-09-06T09:31:58.314Z,1.70
2017-09-06T09:34:24.756Z,1.50
2017-09-06T09:36:51.509Z,2.20
2017-09-06T09:39:17.880Z,1.97
2017-09-06T09:41:44.248Z,2.20
2017-09-06T09:44:10.620Z,2.40
2017-09-06T09:46:36.999Z,2.20
2017-09-06T09:49:03.479Z,3.00
2017-09-06T09:51:29.916Z,2.87
2017-09-06T09:53:56.337Z,3.57
2017-09-06T09:56:22.689Z,3.00
2017-09-06T09:58:49.063Z,3.20
2017-09-06T10:01:15.390Z,3.20
2017-09-06T10:03:42.074Z,4.20
2017-09-06T10:06:08.433Z,4.03
2017-09-06T10:08:34.794Z,3.77
2017-09-06T10:11:01.176Z,3.07
2017-09-06T10:13:27.617Z,3.13
2017-09-06T10:15:54.053Z,2.20
2017-09-06T10:18:20.456Z,2.50
2017-09-06T10:20:46.864Z,3.00
2017-09-06T10:23:13.227Z,1.93
2017-09-06T10:25:39.932Z,1.73
2017-09-06T10:28:06.311Z,2.90
2017-09-06T10:30:32.639Z,2.33
2017-09-06T10:32:59.002Z,2.30
2017-09-06T10:35:25.381Z,2.73
2017-09-06T10:37:51.776Z,2.60
2017-09-06T10:40:18.151Z,2.60
2017-09-06T10:42:44.530Z,2.50
2017-09-06T10:45:11.132Z,3.27
2017-09-06T10:47:37.555Z,2.70
2017-09-06T10:50:03.931Z,3.30
2017-09-06T10:52:30.639Z,3.30
2017-09-06T10:54:56.997Z,3.50
2017-09-06T10:57:23.335Z,3.00
2017-09-06T10:59:49.746Z,2.90
2017-09-06T11:02:16.117Z,3.27
2017-09-06T11:04:42.501Z,2.70
2017-09-06T11:07:08.876Z,3.50
2017-09-06T11:09:35.289Z,3.07
2017-09-06T11:12:01.647Z,3.57
2017-09-06T11:17:01.307Z,3.53
2017-09-06T11:19:27.673Z,3.93
2017-09-06T11:21:54.079Z,4.23
2017-09-06T11:24:20.442Z,3.80
2017-09-06T11:26:46.840Z,4.60
2017-09-06T11:29:13.248Z,3.90
2017-09-06T11:31:39.631Z,3.87
2017-09-06T11:34:06.040Z,3.60
2017-09-06T11:36:32.784Z,3.60
2017-09-06T11:38:59.138Z,3.33
2017-09-06T11:41:25.561Z,3.97
2017-09-06T11:43:51.965Z,3.40
2017-09-06T11:46:18.373Z,3.37
2017-09-06T11:48:46.167Z,3.73
2017-09-06T11:51:12.560Z,3.43
2017-09-06T11:53:38.898Z,4.03
2017-09-06T11:56:05.412Z,4.17
2017-09-06T11:58:32.175Z,3.50
2017-09-06T12:00:58.557Z,3.57
2017-09-06T12:03:24.918Z,3.93
2017-09-06T12:05:51.286Z,3.60
2017-09-06T12:08:17.641Z,2.77
2017-09-06T12:10:44.036Z,3.17
2017-09-06T12:13:10.385Z,3.50
2017-09-06T12:15:36.733Z,4.17
2017-09-06T12:18:03.142Z,3.30
2017-09-06T12:20:29.532Z,3.37
2017-09-06T12:22:55.929Z,3.13
2017-09-06T12:25:22.614Z,3.00
2017-09-06T12:27:48.986Z,3.40
2017-09-06T12:30:15.352Z,3.97
2017-09-06T12:32:41.730Z,4.00
2017-09-06T12:35:08.089Z,3.10
2017-09-06T12:37:34.529Z,3.20
2017-09-06T12:40:00.915Z,2.90
2017-09-06T12:42:27.473Z,2.20
2017-09-06T12:44:53.832Z,2.67
2017-09-06T12:47:20.509Z,3.03
2017-09-06T12:49:46.900Z,3.70
2017-09-06T12:52:13.277Z,2.60
2017-09-06T12:54:39.641Z,2.60
2017-09-06T12:57:05.999Z,2.70
2017-09-06T12:59:32.408Z,2.30
2017-09-06T13:01:58.794Z,2.70
2017-09-06T13:04:25.181Z,2.30
2017-09-06T13:06:51.544Z,2.20
2017-09-06T13:09:18.367Z,2.33
2017-09-06T13:11:44.737Z,2.80
2017-09-06T13:14:11.127Z,2.07
2017-09-06T13:16:37.536Z,2.07
2017-09-06T13:19:03.913Z,2.23
2017-09-06T13:21:30.296Z,2.37
2017-09-06T13:23:56.657Z,2.10
2017-09-06T13:26:23.600Z,2.30
2017-09-06T13:28:49.939Z,2.40
2017-09-06T13:31:16.358Z,2.97
2017-09-06T13:33:42.764Z,2.97
2017-09-06T13:36:09.147Z,2.40
2017-09-06T13:38:35.809Z,2.83
2017-09-06T13:41:02.183Z,2.43
2017-09-06T13:43:28.563Z,2.20
2017-09-06T13:45:54.979Z,3.00
2017-09-06T13:48:21.402Z,2.60
2017-09-06T13:50:47.812Z,3.30
2017-09-06T13:53:14.149Z,2.93
2017-09-06T13:55:40.557Z,2.80
2017-09-06T13:58:06.901Z,2.90
2017-09-06T14:00:33.624Z,2.60
2017-09-06T14:03:00.011Z,2.73
2017-09-06T14:05:26.373Z,3.00
2017-09-06T14:07:52.767Z,2.97
2017-09-06T14:10:19.134Z,2.50
2017-09-06T14:12:45.505Z,2.60
2017-09-06T14:15:11.883Z,2.97
2017-09-06T14:17:38.301Z,2.60
2017-09-06T14:20:04.656Z,2.40
2017-09-06T14:22:31.415Z,3.00
2017-09-06T14:24:57.788Z,2.70
2017-09-06T14:27:24.130Z,3.03
2017-09-06T14:29:50.509Z,2.93
2017-09-06T14:32:16.902Z,2.53
2017-09-06T14:34:43.253Z,2.80
2017-09-06T14:37:09.557Z,1.90
2017-09-06T14:39:35.959Z,2.60
2017-09-06T14:42:02.341Z,2.07
2017-09-06T14:44:29.206Z,2.60
2017-09-06T14:46:55.680Z,2.40
2017-09-06T14:49:22.025Z,2.70
2017-09-06T14:51:48.404Z,2.50
2017-09-06T14:54:14.783Z,2.80
2017-09-06T14:56:41.271Z,2.30
2017-09-06T14:59:07.668Z,2.60
2017-09-06T15:01:34.057Z,2.60
2017-09-06T15:04:00.399Z,2.90
2017-09-06T15:06:26.766Z,1.80
2017-09-06T15:08:53.132Z,2.50
2017-09-06T15:11:19.776Z,2.60
2017-09-06T15:13:46.156Z,2.20
2017-09-06T15:16:12.503Z,1.60
2017-09-06T15:18:38.945Z,1.60
2017-09-06T15:21:05.326Z,1.43
2017-09-06T15:23:31.734Z,1.63
2017-09-06T15:25:58.096Z,2.20
2017-09-06T15:28:24.505Z,1.80
2017-09-06T15:30:50.867Z,2.17
2017-09-06T15:33:17.522Z,1.70
2017-09-06T15:35:43.918Z,2.00
2017-09-06T15:38:10.310Z,2.03
2017-09-06T15:40:36.684Z,1.70
2017-09-06T15:43:03.129Z,1.70
2017-09-06T15:45:29.510Z,1.33
2017-09-06T15:47:55.878Z,1.50
2017-09-06T15:50:22.284Z,1.93
2017-09-06T15:52:48.672Z,2.07
2017-09-06T15:55:15.336Z,1.90
2017-09-06T15:57:41.736Z,1.87
2017-09-06T16:00:08.124Z,1.73
2017-09-06T16:02:34.494Z,1.10
2017-09-06T16:05:00.872Z,1.63
2017-09-06T16:07:27.282Z,1.43
2017-09-06T16:09:53.642Z,1.70
2017-09-06T16:12:20.042Z,1.43
2017-09-06T16:14:46.455Z,1.80
2017-09-06T16:17:13.195Z,1.80
2017-09-06T16:19:39.610Z,1.40
2017-09-06T16:22:06.029Z,1.50
2017-09-06T16:24:32.390Z,2.43
2017-09-06T16:26:58.788Z,2.00
2017-09-06T16:29:25.178Z,2.20
2017-09-06T16:31:51.574Z,2.00
2017-09-06T16:34:18.349Z,2.27
2017-09-06T16:36:44.717Z,1.80
2017-09-06T16:39:11.093Z,1.70
2017-09-06T16:41:37.507Z,1.33
2017-09-06T16:44:03.894Z,1.90
2017-09-06T16:46:30.209Z,2.93
2017-09-06T16:48:56.570Z,2.80
2017-09-06T16:51:22.999Z,1.97
2017-09-06T16:53:49.403Z,3.83
2017-09-06T16:56:16.044Z,3.00
2017-09-06T16:58:42.399Z,2.63
2017-09-06T17:01:08.809Z,2.83
2017-09-06T17:03:35.179Z,1.97
2017-09-06T17:06:01.584Z,2.27
2017-09-06T17:08:29.342Z,3.00
2017-09-06T17:10:55.717Z,2.60
2017-09-06T17:13:22.119Z,2.27
2017-09-06T17:15:48.496Z,3.10
2017-09-06T17:18:15.281Z,2.80
2017-09-06T17:20:41.701Z,2.03
2017-09-06T17:23:08.082Z,1.50
2017-09-06T17:25:34.452Z,1.60
2017-09-06T17:28:00.811Z,1.43
2017-09-06T17:30:27.208Z,1.43
2017-09-06T17:32:53.625Z,1.70
2017-09-06T17:35:20.431Z,1.53
2017-09-06T17:37:46.785Z,1.60
2017-09-06T17:40:13.211Z,1.90
2017-09-06T17:42:46.715Z,2.17
2017-09-06T17:45:13.110Z,1.67
2017-09-06T17:47:39.576Z,2.20
2017-09-06T17:50:06.026Z,1.50
2017-09-06T17:52:32.505Z,1.73
2017-09-06T17:54:58.948Z,1.57
2017-09-06T17:57:25.371Z,1.70
2017-09-06T17:59:51.764Z,1.57
2017-09-06T18:02:18.508Z,2.20
2017-09-06T18:04:44.887Z,1.80
2017-09-06T18:07:11.256Z,1.63
2017-09-06T18:09:37.657Z,1.90
2017-09-06T18:12:04.079Z,1.50
2017-09-06T18:14:30.543Z,1.80
2017-09-06T18:16:56.929Z,1.70
2017-09-06T18:19:23.617Z,1.47
2017-09-06T18:21:50.028Z,1.50
2017-09-06T18:24:16.444Z,1.70
2017-09-06T18:26:42.990Z,1.50
2017-09-06T18:29:09.540Z,1.60
2017-09-06T18:31:36.253Z,1.50
2017-09-06T18:34:02.721Z,1.50
2017-09-06T18:36:29.172Z,2.13
2017-09-06T18:38:55.694Z,1.67
2017-09-06T18:41:22.140Z,1.70
2017-09-06T18:43:48.617Z,2.03
2017-09-06T18:46:15.157Z,1.90
2017-09-06T18:48:41.908Z,2.07
2017-09-06T18:51:08.407Z,1.80
2017-09-06T18:53:34.870Z,1.87
2017-09-06T18:56:01.320Z,1.93
2017-09-06T18:58:27.768Z,1.77
2017-09-06T19:00:54.236Z,2.00
2017-09-06T19:03:20.693Z,2.57
2017-09-06T19:05:47.234Z,1.87
2017-09-06T19:08:13.687Z,2.00
2017-09-06T19:10:40.142Z,1.83
2017-09-06T19:13:06.619Z,2.00
2017-09-06T19:15:33.420Z,1.97
2017-09-06T19:17:59.909Z,2.07
2017-09-06T19:20:26.429Z,1.67
2017-09-06T19:22:52.945Z,2.30
2017-09-06T19:25:19.467Z,1.93
2017-09-06T19:27:45.961Z,1.80
2017-09-06T19:30:12.508Z,1.83
2017-09-06T19:32:39.620Z,1.80
2017-09-06T19:35:06.066Z,1.77
2017-09-06T19:37:32.506Z,1.80
2017-09-06T19:39:58.976Z,2.20
2017-09-06T19:42:25.463Z,3.50
2017-09-06T19:44:51.959Z,2.20
2017-09-06T19:47:18.457Z,2.30
2017-09-06T19:49:44.984Z,1.83
2017-09-06T19:52:11.460Z,2.20
2017-09-06T19:54:38.684Z,1.90
2017-09-06T19:57:05.151Z,2.13
2017-09-06T19:59:32.054Z,2.30
2017-09-06T20:01:58.520Z,2.53
2017-09-06T20:04:24.984Z,2.13
2017-09-06T20:06:51.449Z,2.50
2017-09-06T20:09:17.918Z,2.30
2017-09-06T20:11:44.411Z,2.87
2017-09-06T20:14:10.862Z,2.93
2017-09-06T20:16:37.332Z,2.30
2017-09-06T20:19:03.802Z,2.57
2017-09-06T20:21:30.289Z,3.07
2017-09-06T20:23:56.722Z,2.70
2017-09-06T20:26:23.504Z,2.10
2017-09-06T20:28:49.921Z,2.40
2017-09-06T20:31:16.366Z,2.90
2017-09-06T20:33:42.822Z,2.47
2017-09-06T20:36:09.269Z,2.70
2017-09-06T20:38:35.726Z,2.63
2017-09-06T20:41:02.172Z,2.60
2017-09-06T20:43:28.617Z,2.20
2017-09-06T20:45:55.039Z,2.47
2017-09-06T20:48:21.555Z,2.70
2017-09-06T20:50:47.957Z,2.77
2017-09-06T20:53:14.659Z,2.57
2017-09-06T20:55:41.111Z,2.43
2017-09-06T20:58:07.524Z,2.80
2017-09-06T21:00:33.956Z,2.77
2017-09-06T21:03:00.380Z,2.77
2017-09-06T21:05:26.802Z,2.77
2017-09-06T21:07:53.120Z,3.27
2017-09-06T21:10:19.517Z,2.33
2017-09-06T21:12:45.878Z,3.20
2017-09-06T21:15:12.296Z,3.33
2017-09-06T21:17:38.662Z,3.57
2017-09-06T21:20:05.292Z,2.80
2017-09-06T21:22:31.684Z,2.80
2017-09-06T21:24:58.041Z,3.57
2017-09-06T21:27:24.423Z,2.93
2017-09-06T21:29:50.786Z,3.47
2017-09-06T21:32:17.146Z,2.90
2017-09-06T21:34:43.528Z,3.60
2017-09-06T21:37:09.906Z,3.03
2017-09-06T21:42:09.630Z,3.37
2017-09-06T21:44:36.023Z,3.63
2017-09-06T21:47:02.510Z,4.07
2017-09-06T21:49:28.880Z,3.60
2017-09-06T21:51:55.642Z,3.87
2017-09-06T21:54:22.028Z,3.80
2017-09-06T21:56:48.385Z,3.83
2017-09-06T21:59:14.759Z,3.90
2017-09-06T22:01:41.164Z,4.47
2017-09-06T22:04:07.521Z,3.60
2017-09-06T22:06:33.861Z,3.20
2017-09-06T22:09:00.296Z,3.17
2017-09-06T22:11:26.631Z,3.47
2017-09-06T22:14:00.277Z,3.40
2017-09-06T22:16:26.662Z,3.77
2017-09-06T22:18:53.029Z,3.30
2017-09-06T22:21:19.380Z,3.43
2017-09-06T22:23:45.727Z,3.60
2017-09-06T22:26:12.141Z,3.63
2017-09-06T22:28:38.506Z,3.30
2017-09-06T22:31:04.909Z,3.23
2017-09-06T22:33:31.258Z,3.33
2017-09-06T22:35:57.935Z,3.17
2017-09-06T22:38:24.291Z,2.93
2017-09-06T22:40:50.657Z,3.63
2017-09-06T22:43:17.015Z,3.80
2017-09-06T22:45:43.381Z,3.20
2017-09-06T22:48:09.852Z,7.00
2017-09-06T22:50:36.220Z,3.63
2017-09-06T22:53:02.580Z,3.20
2017-09-06T22:55:28.947Z,4.20
2017-09-06T22:57:55.305Z,3.33
2017-09-06T23:00:27.907Z,3.23
2017-09-06T23:02:54.633Z,3.10
2017-09-06T23:05:20.996Z,3.73
2017-09-06T23:07:47.331Z,3.80
2017-09-06T23:10:13.724Z,3.50
2017-09-06T23:12:40.090Z,3.20
2017-09-06T23:15:06.467Z,3.60
2017-09-06T23:17:32.809Z,3.70
2017-09-06T23:19:59.179Z,3.73
2017-09-06T23:22:25.540Z,3.37
2017-09-06T23:24:51.916Z,3.60
2017-09-06T23:27:18.292Z,2.90
2017-09-06T23:29:44.687Z,3.47
2017-09-06T23:32:11.062Z,3.50
2017-09-06T23:34:37.481Z,3.23
2017-09-06T23:37:03.857Z,3.03
2017-09-06T23:39:30.244Z,3.33
2017-09-06T23:41:56.614Z,2.83
2017-09-06T23:44:22.969Z,3.10
2017-09-06T23:46:49.376Z,4.13
2017-09-06T23:49:15.826Z,3.20
2017-09-06T23:51:42.199Z,3.70
2017-09-06T23:54:08.595Z,3.03
2017-09-06T23:56:34.996Z,3.77
2017-09-06T23:59:01.365Z,3.33
